createdAt,value
2023-04-28T00:01:20.717Z,4.83
2023-04-28T00:03:49.124Z,5.83
2023-04-28T00:06:17.503Z,5.43
2023-04-28T00:08:47.032Z,5.30
2023-04-28T00:11:15.304Z,5.40
2023-04-28T00:13:43.396Z,5.33
2023-04-28T00:16:11.526Z,5.30
2023-04-28T00:18:39.690Z,5.33
2023-04-28T00:21:08.610Z,5.60
2023-04-28T00:23:40.861Z,5.20
2023-04-28T00:26:10.446Z,5.60
2023-04-28T00:28:38.545Z,5.40
2023-04-28T00:31:12.709Z,5.00
2023-04-28T00:33:41.795Z,5.67
2023-04-28T00:36:11.291Z,5.43
2023-04-28T00:38:39.825Z,5.20
2023-04-28T00:41:11.037Z,5.43
2023-04-28T00:43:49.605Z,5.60
2023-04-28T00:46:24.058Z,5.47
2023-04-28T00:48:52.533Z,5.10
2023-04-28T00:51:21.547Z,5.40
2023-04-28T00:53:49.858Z,5.63
2023-04-28T00:56:19.668Z,5.60
2023-04-28T00:58:47.791Z,5.23
2023-04-28T01:01:16.897Z,5.40
2023-04-28T01:03:45.476Z,4.83
2023-04-28T01:06:16.452Z,5.53
2023-04-28T01:08:44.894Z,5.63
2023-04-28T01:11:14.130Z,5.77
2023-04-28T01:13:43.777Z,5.40
2023-04-28T01:16:12.209Z,6.20
2023-04-28T01:18:47.904Z,5.67
2023-04-28T01:21:16.552Z,5.97
2023-04-28T01:23:48.420Z,5.60
2023-04-28T01:26:20.710Z,6.37
2023-04-28T01:28:48.810Z,5.83
2023-04-28T01:31:17.081Z,6.00
2023-04-28T01:33:45.365Z,6.40
2023-04-28T01:36:13.430Z,5.80
2023-04-28T01:38:41.829Z,6.03
2023-04-28T01:41:11.332Z,6.00
2023-04-28T01:43:39.464Z,6.17
2023-04-28T01:46:07.655Z,5.90
2023-04-28T01:48:35.910Z,6.20
2023-04-28T01:51:04.209Z,6.47
2023-04-28T01:53:32.316Z,6.03
2023-04-28T01:56:00.459Z,6.23
2023-04-28T01:58:29.931Z,6.07
2023-04-28T02:00:58.029Z,6.30
2023-04-28T02:03:26.270Z,7.20
2023-04-28T02:05:55.488Z,5.97
2023-04-28T02:08:23.598Z,6.10
2023-04-28T02:10:51.773Z,6.50
2023-04-28T02:13:19.844Z,6.70
2023-04-28T02:15:49.323Z,6.70
2023-04-28T02:18:17.466Z,6.27
2023-04-28T02:20:45.523Z,7.37
2023-04-28T02:23:13.691Z,6.53
2023-04-28T02:25:42.023Z,7.13
2023-04-28T02:28:10.117Z,6.73
2023-04-28T02:30:38.180Z,7.40
2023-04-28T02:33:07.698Z,7.33
2023-04-28T02:35:36.531Z,7.40
2023-04-28T02:38:04.649Z,7.70
2023-04-28T02:40:32.750Z,7.90
2023-04-28T02:43:00.828Z,7.70
2023-04-28T02:45:28.978Z,8.00
2023-04-28T02:47:57.142Z,7.70
2023-04-28T02:50:26.909Z,7.77
2023-04-28T02:52:56.307Z,7.50
2023-04-28T02:55:24.497Z,8.17
2023-04-28T02:57:52.962Z,8.20
2023-04-28T03:00:21.365Z,8.27
2023-04-28T03:02:49.645Z,8.33
2023-04-28T03:05:21.136Z,8.07
2023-04-28T03:07:50.598Z,7.97
2023-04-28T03:10:18.719Z,8.77
2023-04-28T03:12:46.941Z,8.10
2023-04-28T03:15:18.686Z,8.33
2023-04-28T03:17:46.844Z,8.30
2023-04-28T03:20:15.470Z,9.03
2023-04-28T03:22:43.565Z,9.10
2023-04-28T03:25:13.185Z,9.30
2023-04-28T03:27:41.271Z,9.13
2023-04-28T03:30:10.424Z,10.20
2023-04-28T03:32:38.576Z,9.37
2023-04-28T03:35:07.514Z,8.73
2023-04-28T03:37:38.813Z,8.83
2023-04-28T03:40:08.696Z,9.37
2023-04-28T03:42:38.812Z,10.53
2023-04-28T03:45:08.227Z,9.73
2023-04-28T03:47:37.236Z,9.67
2023-04-28T03:50:06.216Z,9.80
2023-04-28T03:52:34.450Z,9.77
2023-04-28T03:55:02.609Z,10.90
2023-04-28T03:57:30.769Z,9.40
2023-04-28T04:00:00.230Z,10.80
2023-04-28T04:02:28.528Z,10.60
2023-04-28T04:04:57.265Z,10.07
2023-04-28T04:07:25.750Z,9.70
2023-04-28T04:09:54.356Z,9.17
2023-04-28T04:12:22.482Z,9.43
2023-04-28T04:14:50.534Z,9.63
2023-04-28T04:17:22.707Z,9.80
2023-04-28T04:19:50.826Z,10.80
2023-04-28T04:22:18.942Z,10.30
2023-04-28T04:24:47.017Z,10.30
2023-04-28T04:27:20.788Z,10.43
2023-04-28T04:29:48.913Z,10.40
2023-04-28T04:32:20.137Z,10.00
2023-04-28T04:34:48.356Z,10.53
2023-04-28T04:37:16.533Z,9.97
2023-04-28T04:39:44.618Z,9.73
2023-04-28T04:42:24.190Z,10.10
2023-04-28T04:44:55.011Z,10.10
2023-04-28T04:47:26.013Z,10.13
2023-04-28T04:49:55.575Z,10.00
2023-04-28T04:52:24.977Z,10.10
2023-04-28T04:54:53.342Z,10.00
2023-04-28T04:57:21.591Z,10.13
2023-04-28T04:59:49.679Z,10.20
2023-04-28T05:02:21.555Z,9.80
2023-04-28T05:04:51.279Z,10.10
2023-04-28T05:07:19.438Z,10.23
2023-04-28T05:09:47.558Z,10.30
2023-04-28T05:12:15.761Z,10.03
2023-04-28T05:14:43.841Z,10.23
2023-04-28T05:17:12.292Z,11.10
2023-04-28T05:19:40.362Z,11.00
2023-04-28T05:22:09.893Z,10.13
2023-04-28T05:24:38.091Z,10.30
2023-04-28T05:27:06.219Z,10.37
2023-04-28T05:29:34.412Z,9.83
2023-04-28T05:32:02.886Z,10.40
2023-04-28T05:34:31.455Z,9.40
2023-04-28T05:36:59.745Z,10.13
2023-04-28T05:39:29.292Z,9.90
2023-04-28T05:41:58.578Z,9.67
2023-04-28T05:44:26.914Z,10.13
2023-04-28T05:46:55.535Z,10.57
2023-04-28T05:49:23.823Z,10.03
2023-04-28T05:51:51.940Z,9.07
2023-04-28T05:54:20.104Z,9.50
2023-04-28T05:56:49.873Z,10.10
2023-04-28T05:59:18.422Z,9.47
2023-04-28T06:01:46.700Z,9.73
2023-04-28T06:04:15.721Z,8.67
2023-04-28T06:06:44.183Z,9.00
2023-04-28T06:09:12.318Z,9.53
2023-04-28T06:11:40.434Z,9.67
2023-04-28T06:14:09.912Z,9.73
2023-04-28T06:16:38.051Z,9.60
2023-04-28T06:19:06.270Z,9.17
2023-04-28T06:21:34.415Z,9.40
2023-04-28T06:24:02.693Z,9.47
2023-04-28T06:26:30.977Z,9.57
2023-04-28T06:28:59.150Z,8.87
2023-04-28T06:31:28.643Z,8.50
2023-04-28T06:34:01.790Z,9.83
2023-04-28T06:36:29.974Z,9.67
2023-04-28T06:39:02.013Z,8.53
2023-04-28T06:41:30.378Z,9.00
2023-04-28T06:44:01.172Z,8.20
2023-04-28T06:46:31.701Z,7.93
2023-04-28T06:49:01.488Z,8.27
2023-04-28T06:51:29.803Z,9.07
2023-04-28T06:54:02.722Z,7.93
2023-04-28T06:56:31.003Z,8.47
2023-04-28T06:59:01.301Z,9.23
2023-04-28T07:01:30.939Z,8.30
2023-04-28T07:04:01.921Z,8.90
2023-04-28T07:06:31.793Z,8.87
2023-04-28T07:09:04.789Z,9.83
2023-04-28T07:11:33.353Z,8.27
2023-04-28T07:14:01.844Z,8.60
2023-04-28T07:16:31.653Z,8.10
2023-04-28T07:19:01.735Z,8.83
2023-04-28T07:21:29.875Z,8.70
2023-04-28T07:24:01.602Z,8.50
2023-04-28T07:26:29.983Z,8.73
2023-04-28T07:28:58.179Z,8.73
2023-04-28T07:31:26.745Z,7.97
2023-04-28T07:33:56.527Z,8.20
2023-04-28T07:36:24.712Z,8.88
2023-04-28T07:38:52.834Z,8.40
2023-04-28T07:41:20.966Z,8.40
2023-04-28T07:43:49.109Z,8.50
2023-04-28T07:46:21.116Z,8.20
2023-04-28T07:48:49.368Z,8.50
2023-04-28T07:51:18.965Z,8.88
2023-04-28T07:53:47.125Z,8.30
2023-04-28T07:56:19.873Z,8.50
2023-04-28T07:58:48.050Z,8.10
2023-04-28T08:01:16.809Z,8.57
2023-04-28T08:03:45.224Z,7.95
2023-04-28T08:06:14.985Z,7.95
2023-04-28T08:08:46.229Z,8.25
2023-04-28T08:11:14.330Z,7.88
2023-04-28T08:13:42.461Z,9.10
2023-04-28T08:16:10.763Z,7.70
2023-04-28T08:18:39.832Z,7.95
2023-04-28T08:21:08.216Z,8.02
2023-04-28T08:23:36.508Z,7.90
2023-04-28T08:26:06.091Z,7.75
2023-04-28T08:28:34.726Z,7.20
2023-04-28T08:31:02.935Z,7.65
2023-04-28T08:33:31.062Z,7.32
2023-04-28T08:35:59.570Z,7.07
2023-04-28T08:38:28.532Z,6.68
2023-04-28T08:41:01.701Z,6.47
2023-04-28T08:43:33.989Z,5.90
2023-04-28T08:46:08.406Z,6.10
2023-04-28T08:48:42.837Z,5.85
2023-04-28T08:51:15.788Z,5.68
2023-04-28T08:56:26.044Z,5.80
2023-04-28T08:58:56.481Z,6.30
2023-04-28T09:01:25.107Z,6.70
2023-04-28T09:03:56.111Z,6.25
2023-04-28T09:06:24.470Z,6.22
2023-04-28T09:08:52.632Z,6.40
2023-04-28T09:11:20.939Z,7.30
2023-04-28T09:13:49.103Z,6.63
2023-04-28T09:16:18.783Z,6.22
2023-04-28T09:19:01.245Z,6.53
2023-04-28T09:21:29.371Z,6.60
2023-04-28T09:23:57.512Z,6.90
2023-04-28T09:26:25.661Z,6.50
2023-04-28T09:28:57.284Z,7.78
2023-04-28T09:31:28.606Z,7.50
2023-04-28T09:34:00.624Z,7.55
2023-04-28T09:36:30.686Z,7.30
2023-04-28T09:39:00.238Z,7.90
2023-04-28T09:41:42.569Z,8.20
2023-04-28T09:44:21.746Z,7.10
2023-04-28T09:46:51.253Z,7.82
2023-04-28T09:49:19.399Z,7.63
2023-04-28T09:51:47.573Z,8.30
2023-04-28T09:54:17.217Z,8.50
2023-04-28T09:56:48.515Z,8.20
2023-04-28T09:59:21.592Z,8.52
2023-04-28T10:01:51.592Z,8.20
2023-04-28T10:04:20.179Z,7.72
2023-04-28T10:06:48.726Z,8.38
2023-04-28T10:09:18.052Z,9.32
2023-04-28T10:11:46.284Z,9.23
2023-04-28T10:14:15.021Z,11.02
2023-04-28T10:16:43.900Z,9.02
2023-04-28T10:19:13.866Z,8.60
2023-04-28T10:21:56.749Z,8.07
2023-04-28T10:24:31.187Z,8.82
2023-04-28T10:27:11.208Z,8.75
2023-04-28T10:29:39.422Z,8.40
2023-04-28T10:32:23.466Z,8.77
2023-04-28T10:34:53.671Z,9.15
2023-04-28T10:37:54.765Z,8.90
2023-04-28T10:40:36.023Z,8.13
2023-04-28T10:43:06.617Z,9.02
2023-04-28T10:46:06.247Z,8.27
2023-04-28T10:48:58.643Z,8.98
2023-04-28T10:51:36.044Z,8.75
2023-04-28T10:54:19.180Z,9.55
2023-04-28T10:57:23.277Z,8.55
2023-04-28T10:59:52.330Z,8.88
2023-04-28T11:02:44.366Z,9.07
2023-04-28T11:05:20.837Z,9.55
2023-04-28T11:08:35.910Z,9.00
2023-04-28T11:11:18.342Z,9.50
2023-04-28T11:13:48.012Z,9.13
2023-04-28T11:16:18.545Z,8.98
2023-04-28T11:19:05.547Z,9.38
2023-04-28T11:21:34.644Z,8.70
2023-04-28T11:24:11.431Z,9.30
2023-04-28T11:26:39.928Z,9.32
2023-04-28T11:29:08.631Z,9.50
2023-04-28T11:31:37.336Z,8.52
2023-04-28T11:34:07.685Z,8.45
2023-04-28T11:36:38.185Z,7.82
2023-04-28T11:39:10.170Z,6.93
2023-04-28T11:41:40.776Z,7.53
2023-04-28T11:44:14.193Z,7.03
2023-04-28T11:46:53.726Z,7.93
2023-04-28T11:49:24.443Z,8.50
2023-04-28T11:51:53.685Z,8.27
2023-04-28T11:54:25.037Z,8.48
2023-04-28T11:56:55.587Z,8.13
2023-04-28T11:59:27.343Z,8.35
2023-04-28T12:01:59.125Z,8.13
2023-04-28T12:04:33.024Z,7.85
2023-04-28T12:07:07.497Z,8.57
2023-04-28T12:09:39.935Z,8.27
2023-04-28T12:12:11.758Z,7.82
2023-04-28T12:14:57.423Z,7.18
2023-04-28T12:17:26.984Z,7.85
2023-04-28T12:19:56.034Z,7.35
2023-04-28T12:22:25.368Z,7.72
2023-04-28T12:25:10.315Z,7.10
2023-04-28T12:27:42.318Z,7.40
2023-04-28T12:30:30.152Z,7.72
2023-04-28T12:32:58.635Z,7.38
2023-04-28T12:35:28.335Z,7.30
2023-04-28T12:37:58.977Z,7.35
2023-04-28T12:40:28.536Z,7.07
2023-04-28T12:42:56.894Z,7.28
2023-04-28T12:45:25.081Z,7.25
2023-04-28T12:47:53.187Z,7.28
2023-04-28T12:50:21.700Z,7.20
2023-04-28T12:52:49.792Z,7.20
2023-04-28T12:55:21.655Z,7.47
2023-04-28T12:57:51.539Z,7.53
2023-04-28T13:00:23.217Z,7.00
2023-04-28T13:02:52.233Z,6.90
2023-04-28T13:05:20.523Z,6.93
2023-04-28T13:07:49.316Z,6.85
2023-04-28T13:10:18.953Z,7.75
2023-04-28T13:12:46.995Z,7.47
2023-04-28T13:15:17.059Z,7.20
2023-04-28T13:17:46.333Z,7.03
2023-04-28T13:20:14.525Z,6.25
2023-04-28T13:22:42.825Z,7.13
2023-04-28T13:25:11.469Z,5.88
2023-04-28T13:27:41.952Z,6.78
2023-04-28T13:30:13.299Z,6.50
2023-04-28T13:32:42.739Z,6.65
2023-04-28T13:35:11.131Z,6.40
2023-04-28T13:37:45.750Z,6.72
2023-04-28T13:40:14.331Z,6.85
2023-04-28T13:42:42.413Z,7.00
2023-04-28T13:45:11.460Z,6.55
2023-04-28T13:47:39.803Z,6.65
2023-04-28T13:50:10.082Z,6.68
2023-04-28T13:52:38.105Z,6.38
2023-04-28T13:55:07.070Z,6.78
2023-04-28T13:57:35.187Z,5.65
2023-04-28T14:00:04.708Z,5.47
2023-04-28T14:02:33.095Z,4.97
2023-04-28T14:05:01.226Z,5.30
2023-04-28T14:07:30.884Z,5.15
2023-04-28T14:09:58.930Z,4.82
2023-04-28T14:12:26.969Z,4.75
2023-04-28T14:14:55.003Z,5.53
2023-04-28T14:17:23.187Z,5.20
2023-04-28T14:19:51.511Z,4.80
2023-04-28T14:22:19.628Z,5.18
2023-04-28T14:24:49.329Z,5.28
2023-04-28T14:27:17.690Z,4.82
2023-04-28T14:29:48.150Z,5.20
2023-04-28T14:32:21.316Z,5.00
2023-04-28T14:34:51.751Z,4.70
2023-04-28T14:37:20.223Z,4.80
2023-04-28T14:39:50.143Z,5.03
2023-04-28T14:42:18.258Z,4.95
2023-04-28T14:44:47.661Z,4.93
2023-04-28T14:47:16.093Z,4.78
2023-04-28T14:49:44.459Z,4.63
2023-04-28T14:52:12.755Z,4.28
2023-04-28T14:54:40.831Z,4.50
2023-04-28T14:57:10.255Z,4.13
2023-04-28T14:59:38.297Z,4.47
2023-04-28T15:02:07.760Z,4.65
2023-04-28T15:04:36.244Z,5.43
2023-04-28T15:07:04.364Z,5.10
2023-04-28T15:09:32.602Z,5.05
2023-04-28T15:12:00.594Z,6.45
2023-04-28T15:14:30.076Z,5.38
2023-04-28T15:16:58.107Z,5.25
2023-04-28T15:19:26.245Z,5.63
2023-04-28T15:21:54.382Z,6.07
2023-04-28T15:24:22.407Z,5.72
2023-04-28T15:26:50.470Z,5.47
2023-04-28T15:29:18.909Z,5.10
2023-04-28T15:31:48.374Z,4.90
2023-04-28T15:34:17.103Z,5.45
2023-04-28T15:36:46.889Z,5.23
2023-04-28T15:39:16.297Z,4.78
2023-04-28T15:41:44.493Z,5.80
2023-04-28T15:44:12.525Z,5.05
2023-04-28T15:46:40.782Z,5.68
2023-04-28T15:49:10.157Z,4.53
2023-04-28T15:51:38.207Z,5.40
2023-04-28T15:54:06.283Z,5.40
2023-04-28T15:56:35.088Z,5.35
2023-04-28T15:59:03.231Z,5.30
2023-04-28T16:01:34.252Z,5.10
2023-04-28T16:04:02.710Z,4.63
2023-04-28T16:06:32.632Z,4.33
2023-04-28T16:09:02.219Z,5.20
2023-04-28T16:11:30.312Z,4.80
2023-04-28T16:14:01.645Z,5.13
2023-04-28T16:16:36.384Z,5.53
2023-04-28T16:19:08.339Z,5.60
2023-04-28T16:21:41.753Z,5.13
2023-04-28T16:24:09.961Z,5.00
2023-04-28T16:26:41.692Z,5.55
2023-04-28T16:29:11.675Z,5.20
2023-04-28T16:31:42.342Z,4.83
2023-04-28T16:34:10.451Z,5.37
2023-04-28T16:36:42.277Z,4.80
2023-04-28T16:39:10.634Z,4.75
2023-04-28T16:41:41.906Z,4.77
2023-04-28T16:44:10.128Z,4.30
2023-04-28T16:46:42.848Z,5.10
2023-04-28T16:49:12.391Z,4.40
2023-04-28T16:52:00.485Z,4.80
2023-04-28T16:54:30.395Z,4.97
2023-04-28T16:57:03.994Z,5.53
2023-04-28T16:59:33.887Z,6.47
2023-04-28T17:02:03.874Z,6.00
2023-04-28T17:04:32.750Z,5.60
2023-04-28T17:07:05.169Z,5.80
2023-04-28T17:09:33.761Z,5.33
2023-04-28T17:12:03.538Z,6.85
2023-04-28T17:14:31.952Z,6.30
2023-04-28T17:17:02.067Z,5.87
2023-04-28T17:19:30.457Z,6.80
2023-04-28T17:22:02.237Z,6.65
2023-04-28T17:24:33.082Z,6.23
2023-04-28T17:27:02.515Z,6.83
2023-04-28T17:29:31.015Z,7.40
2023-04-28T17:32:01.974Z,6.87
2023-04-28T17:34:30.033Z,6.70
2023-04-28T17:37:02.656Z,6.50
2023-04-28T17:39:30.769Z,5.83
2023-04-28T17:42:02.574Z,7.63
2023-04-28T17:44:30.947Z,6.80
2023-04-28T17:47:02.311Z,7.07
2023-04-28T17:49:30.490Z,7.20
2023-04-28T17:52:04.031Z,6.47
2023-04-28T17:54:33.883Z,7.20
2023-04-28T17:57:02.723Z,7.80
2023-04-28T17:59:30.847Z,7.13
2023-04-28T18:02:02.115Z,7.97
2023-04-28T18:04:30.693Z,7.73
2023-04-28T18:07:04.284Z,6.47
2023-04-28T18:09:32.569Z,9.00
2023-04-28T18:12:04.476Z,8.80
2023-04-28T18:14:32.656Z,8.93
2023-04-28T18:17:02.111Z,8.07
2023-04-28T18:19:32.262Z,8.83
2023-04-28T18:22:02.112Z,8.93
2023-04-28T18:24:31.573Z,8.73
2023-04-28T18:27:02.254Z,8.80
2023-04-28T18:29:30.339Z,8.33
2023-04-28T18:32:02.084Z,9.23
2023-04-28T18:34:30.457Z,8.83
2023-04-28T18:37:01.855Z,8.53
2023-04-28T18:39:31.331Z,9.70
2023-04-28T18:42:03.017Z,9.20
2023-04-28T18:44:31.461Z,8.83
2023-04-28T18:47:02.000Z,8.53
2023-04-28T18:49:30.169Z,9.20
2023-04-28T18:52:03.547Z,9.43
2023-04-28T18:54:32.992Z,9.43
2023-04-28T18:57:03.383Z,8.90
2023-04-28T18:59:31.500Z,10.07
2023-04-28T19:02:03.205Z,10.03
2023-04-28T19:04:31.815Z,10.77
2023-04-28T19:07:02.673Z,9.77
2023-04-28T19:09:32.244Z,10.77
2023-04-28T19:12:04.485Z,10.73
2023-04-28T19:14:33.219Z,10.13
2023-04-28T19:17:01.572Z,10.43
2023-04-28T19:19:30.054Z,9.80
2023-04-28T19:21:58.163Z,10.70
2023-04-28T19:24:29.112Z,10.17
2023-04-28T19:27:01.164Z,10.50
2023-04-28T19:29:29.271Z,10.53
2023-04-28T19:31:57.834Z,11.13
2023-04-28T19:34:25.952Z,11.73
2023-04-28T19:36:56.105Z,11.33
2023-04-28T19:39:24.288Z,11.07
2023-04-28T19:41:54.413Z,11.33
2023-04-28T19:44:23.909Z,10.37
2023-04-28T19:46:52.035Z,11.37
2023-04-28T19:49:20.129Z,11.63
2023-04-28T19:51:48.341Z,10.90
2023-04-28T19:54:16.963Z,11.23
2023-04-28T19:56:45.074Z,12.40
2023-04-28T19:59:13.189Z,12.70
2023-04-28T20:01:43.526Z,11.47
2023-04-28T20:04:12.920Z,11.80
2023-04-28T20:06:41.419Z,11.50
2023-04-28T20:09:10.166Z,11.27
2023-04-28T20:11:38.413Z,12.40
2023-04-28T20:14:06.531Z,12.30
2023-04-28T20:16:35.310Z,11.77
2023-04-28T20:19:04.886Z,13.13
2023-04-28T20:21:34.877Z,11.83
2023-04-28T20:24:03.161Z,12.93
2023-04-28T20:26:31.536Z,11.80
2023-04-28T20:28:59.900Z,12.23
2023-04-28T20:31:28.068Z,12.83
2023-04-28T20:33:56.330Z,13.00
2023-04-28T20:36:26.820Z,13.03
2023-04-28T20:38:54.925Z,13.73
2023-04-28T20:41:23.045Z,14.30
2023-04-28T20:43:52.370Z,13.50
2023-04-28T20:46:20.688Z,12.50
2023-04-28T20:48:49.025Z,13.97
2023-04-28T20:51:17.420Z,13.73
2023-04-28T20:53:47.176Z,14.80
2023-04-28T20:56:15.323Z,14.77
2023-04-28T20:58:43.986Z,15.73
2023-04-28T21:01:12.151Z,14.83
2023-04-28T21:03:41.237Z,14.53
2023-04-28T21:06:09.497Z,14.87
2023-04-28T21:08:38.550Z,14.43
2023-04-28T21:11:13.591Z,14.50
2023-04-28T21:13:44.767Z,14.87
2023-04-28T21:16:21.496Z,14.27
2023-04-28T21:18:50.679Z,15.87
2023-04-28T21:21:19.102Z,13.80
2023-04-28T21:23:52.280Z,13.93
2023-04-28T21:26:23.956Z,13.47
2023-04-28T21:28:52.049Z,15.27
2023-04-28T21:31:20.179Z,15.30
2023-04-28T21:33:50.450Z,14.20
2023-04-28T21:36:18.565Z,14.33
2023-04-28T21:38:46.677Z,14.83
2023-04-28T21:41:15.355Z,14.80
2023-04-28T21:43:44.824Z,14.67
2023-04-28T21:46:12.989Z,13.87
2023-04-28T21:48:41.384Z,14.53
2023-04-28T21:51:12.384Z,14.40
2023-04-28T21:53:40.508Z,14.37
2023-04-28T21:56:09.195Z,15.97
2023-04-28T21:58:39.059Z,14.87
2023-04-28T22:01:08.771Z,15.57
2023-04-28T22:03:39.009Z,15.80
2023-04-28T22:06:07.444Z,15.07
2023-04-28T22:08:36.242Z,14.70
2023-04-28T22:11:04.679Z,14.23
2023-04-28T22:13:32.788Z,14.30
2023-04-28T22:16:02.778Z,14.33
2023-04-28T22:18:32.646Z,15.10
2023-04-28T22:21:01.430Z,15.47
2023-04-28T22:23:29.565Z,15.60
2023-04-28T22:26:02.916Z,14.93
2023-04-28T22:28:31.053Z,15.53
2023-04-28T22:31:02.524Z,16.30
2023-04-28T22:33:32.381Z,16.50
2023-04-28T22:36:00.574Z,16.33
2023-04-28T22:38:28.686Z,16.70
2023-04-28T22:41:01.526Z,15.97
2023-04-28T22:43:29.825Z,16.00
2023-04-28T22:45:58.745Z,15.57
2023-04-28T22:48:27.254Z,15.70
2023-04-28T22:50:57.618Z,16.30
2023-04-28T22:53:25.817Z,16.40
2023-04-28T22:55:56.651Z,15.93
2023-04-28T22:58:24.778Z,16.43
2023-04-28T23:00:52.824Z,15.87
2023-04-28T23:03:21.752Z,14.90
2023-04-28T23:05:49.907Z,15.20
2023-04-28T23:08:19.864Z,16.33
2023-04-28T23:10:48.027Z,16.83
2023-04-28T23:13:19.819Z,15.93
2023-04-28T23:15:48.032Z,15.53
2023-04-28T23:18:16.846Z,14.77
2023-04-28T23:20:44.960Z,16.40
2023-04-28T23:23:13.232Z,15.80
2023-04-28T23:25:44.055Z,14.27
2023-04-28T23:28:12.309Z,14.43
2023-04-28T23:30:40.396Z,14.60
2023-04-28T23:33:08.484Z,14.23
2023-04-28T23:35:36.723Z,14.77
2023-04-28T23:38:04.910Z,14.40
2023-04-28T23:40:32.994Z,14.37
2023-04-28T23:43:02.682Z,14.27
2023-04-28T23:45:30.860Z,13.97
2023-04-28T23:48:02.198Z,14.13
2023-04-28T23:50:30.298Z,14.43
2023-04-28T23:52:58.415Z,14.10
2023-04-28T23:55:26.520Z,13.50
2023-04-28T23:57:54.612Z,14.23
